createdAt,value
2024-01-25T00:00:33.035Z,30.33
2024-01-25T00:03:03.025Z,36.53
2024-01-25T00:05:33.656Z,32.33
2024-01-25T00:08:06.462Z,28.00
2024-01-25T00:10:36.438Z,28.97
2024-01-25T00:13:06.415Z,23.13
2024-01-25T00:15:36.340Z,22.93
2024-01-25T00:18:06.434Z,38.37
2024-01-25T00:20:36.587Z,18.17
2024-01-25T00:23:09.033Z,32.67
2024-01-25T00:25:38.833Z,33.73
2024-01-25T00:28:09.138Z,30.87
2024-01-25T00:30:39.119Z,24.97
2024-01-25T00:33:09.491Z,35.43
2024-01-25T00:35:43.464Z,36.37
2024-01-25T00:38:17.132Z,32.67
2024-01-25T00:40:47.865Z,27.97
2024-01-25T00:43:18.568Z,27.70
2024-01-25T00:45:49.148Z,32.90
2024-01-25T00:48:19.658Z,35.10
2024-01-25T00:50:50.126Z,25.17
2024-01-25T00:53:24.336Z,36.37
2024-01-25T00:55:54.941Z,25.47
2024-01-25T00:58:25.823Z,27.93
2024-01-25T01:00:56.548Z,28.23
2024-01-25T01:03:27.624Z,35.40
2024-01-25T01:05:59.349Z,27.50
2024-01-25T01:08:32.884Z,25.53
2024-01-25T01:11:02.839Z,27.47
2024-01-25T01:13:32.933Z,30.23
2024-01-25T01:16:02.921Z,26.83
2024-01-25T01:18:33.005Z,22.83
2024-01-25T01:21:02.893Z,32.00
2024-01-25T01:23:35.269Z,27.37
2024-01-25T01:26:05.118Z,26.50
2024-01-25T01:28:34.919Z,27.47
2024-01-25T01:31:04.742Z,29.33
2024-01-25T01:33:34.790Z,30.53
2024-01-25T01:36:04.741Z,34.20
2024-01-25T01:38:37.158Z,25.87
2024-01-25T01:41:07.328Z,30.37
2024-01-25T01:43:37.140Z,28.30
2024-01-25T01:46:13.950Z,32.43
2024-01-25T01:48:44.296Z,22.90
2024-01-25T01:51:14.802Z,27.80
2024-01-25T01:53:47.718Z,28.40
2024-01-25T01:56:21.296Z,25.83
2024-01-25T01:58:52.492Z,20.73
2024-01-25T02:01:23.131Z,25.37
2024-01-25T02:03:53.171Z,28.30
2024-01-25T02:06:23.728Z,24.03
2024-01-25T02:08:59.808Z,25.40
2024-01-25T02:11:29.934Z,31.30
2024-01-25T02:14:00.365Z,30.73
2024-01-25T02:16:30.556Z,25.53
2024-01-25T02:19:00.821Z,26.60
2024-01-25T02:21:30.856Z,35.57
2024-01-25T02:24:03.709Z,27.87
2024-01-25T02:26:33.965Z,26.67
2024-01-25T02:29:06.140Z,26.43
2024-01-25T02:31:36.025Z,26.10
2024-01-25T02:34:06.080Z,27.67
2024-01-25T02:36:36.220Z,20.37
2024-01-25T02:39:09.229Z,28.53
2024-01-25T02:41:39.049Z,23.23
2024-01-25T02:44:08.848Z,23.80
2024-01-25T02:46:39.247Z,29.30
2024-01-25T02:49:09.402Z,23.73
2024-01-25T02:51:39.455Z,15.07
2024-01-25T02:54:11.938Z,23.13
2024-01-25T02:56:41.799Z,29.83
2024-01-25T02:59:11.693Z,42.07
2024-01-25T03:01:43.021Z,29.90
2024-01-25T03:04:13.279Z,23.90
2024-01-25T03:06:43.363Z,26.67
2024-01-25T03:09:16.184Z,26.07
2024-01-25T03:11:46.156Z,35.23
2024-01-25T03:14:16.112Z,24.43
2024-01-25T03:16:45.959Z,31.23
2024-01-25T03:19:19.214Z,29.83
2024-01-25T03:21:51.736Z,31.37
2024-01-25T03:24:25.258Z,25.50
2024-01-25T03:26:55.519Z,38.23
2024-01-25T03:29:27.827Z,31.10
2024-01-25T03:31:59.218Z,27.80
2024-01-25T03:34:29.653Z,31.17
2024-01-25T03:36:59.798Z,24.50
2024-01-25T03:39:32.342Z,30.87
2024-01-25T03:42:02.294Z,24.23
2024-01-25T03:44:47.491Z,24.30
2024-01-25T03:47:17.422Z,20.03
2024-01-25T03:49:48.269Z,25.73
2024-01-25T03:52:19.977Z,30.23
2024-01-25T03:54:55.308Z,31.63
2024-01-25T03:57:25.473Z,28.00
2024-01-25T03:59:55.391Z,25.17
2024-01-25T04:02:25.425Z,31.67
2024-01-25T04:04:55.454Z,22.67
2024-01-25T04:07:25.409Z,25.10
2024-01-25T04:09:57.957Z,28.93
2024-01-25T04:12:28.131Z,38.50
2024-01-25T04:14:58.459Z,32.87
2024-01-25T04:17:32.916Z,22.50
2024-01-25T04:20:03.185Z,25.17
2024-01-25T04:22:33.379Z,24.67
2024-01-25T04:25:06.137Z,27.47
2024-01-25T04:27:46.666Z,26.10
2024-01-25T04:30:19.876Z,25.67
2024-01-25T04:32:51.254Z,23.97
2024-01-25T04:35:21.879Z,29.43
2024-01-25T04:37:52.215Z,25.17
2024-01-25T04:40:24.795Z,22.43
2024-01-25T04:42:54.776Z,22.53
2024-01-25T04:45:24.670Z,24.43
2024-01-25T04:47:54.549Z,26.07
2024-01-25T04:50:24.728Z,26.33
2024-01-25T04:52:54.751Z,23.67
2024-01-25T04:55:27.251Z,23.70
2024-01-25T04:57:57.296Z,22.27
2024-01-25T05:00:27.862Z,19.27
2024-01-25T05:02:57.726Z,21.30
2024-01-25T05:05:27.579Z,19.37
2024-01-25T05:07:57.553Z,27.10
2024-01-25T05:10:30.478Z,20.10
2024-01-25T05:13:00.385Z,23.03
2024-01-25T05:15:30.604Z,25.60
2024-01-25T05:18:00.823Z,27.30
2024-01-25T05:20:34.417Z,22.00
2024-01-25T05:23:05.243Z,25.70
2024-01-25T05:25:40.117Z,26.07
2024-01-25T05:28:10.558Z,26.03
2024-01-25T05:30:40.713Z,29.97
2024-01-25T05:33:13.535Z,16.07
2024-01-25T05:35:47.788Z,20.53
2024-01-25T05:38:25.657Z,19.47
2024-01-25T05:40:58.339Z,22.10
2024-01-25T05:43:28.798Z,26.60
2024-01-25T05:46:04.620Z,21.87
2024-01-25T05:48:36.424Z,19.60
2024-01-25T05:51:06.700Z,18.03
2024-01-25T05:53:39.750Z,26.50
2024-01-25T05:56:12.501Z,29.80
2024-01-25T05:58:43.776Z,22.67
2024-01-25T06:01:20.516Z,28.23
2024-01-25T06:03:50.622Z,30.93
2024-01-25T06:06:22.212Z,22.77
2024-01-25T06:09:02.240Z,19.20
2024-01-25T06:11:43.835Z,29.37
2024-01-25T06:14:19.418Z,32.80
2024-01-25T06:16:49.706Z,31.63
2024-01-25T06:19:23.849Z,25.00
2024-01-25T06:21:54.389Z,31.53
2024-01-25T06:24:27.128Z,29.83
2024-01-25T06:26:59.600Z,29.20
2024-01-25T06:29:31.809Z,22.50
2024-01-25T06:32:05.662Z,23.30
2024-01-25T06:34:37.748Z,33.00
2024-01-25T06:37:08.154Z,32.83
2024-01-25T06:39:38.458Z,29.27
2024-01-25T06:42:12.417Z,40.13
2024-01-25T06:44:42.287Z,24.77
2024-01-25T06:47:12.139Z,28.37
2024-01-25T06:49:42.156Z,28.90
2024-01-25T06:52:16.200Z,33.93
2024-01-25T06:54:57.977Z,30.67
2024-01-25T06:57:35.368Z,32.77
2024-01-25T07:00:05.381Z,31.70
2024-01-25T07:02:35.552Z,30.97
2024-01-25T07:05:06.025Z,39.03
2024-01-25T07:07:36.352Z,35.50
2024-01-25T07:10:19.084Z,31.27
2024-01-25T07:12:51.866Z,34.97
2024-01-25T07:15:22.225Z,40.83
2024-01-25T07:17:52.070Z,38.63
2024-01-25T07:20:24.315Z,30.27
2024-01-25T07:22:54.573Z,28.10
2024-01-25T07:25:24.561Z,30.97
2024-01-25T07:27:57.166Z,32.77
2024-01-25T07:30:27.170Z,43.93
2024-01-25T07:32:57.092Z,32.27
2024-01-25T07:35:39.019Z,24.40
2024-01-25T07:38:09.441Z,29.33
2024-01-25T07:40:44.833Z,37.07
2024-01-25T07:43:17.817Z,30.30
2024-01-25T07:45:52.813Z,30.73
2024-01-25T07:48:25.981Z,45.20
2024-01-25T07:50:55.907Z,42.10
2024-01-25T07:53:26.087Z,38.57
2024-01-25T07:55:55.981Z,31.87
2024-01-25T07:58:31.874Z,31.40
2024-01-25T08:01:01.933Z,33.43
2024-01-25T08:03:31.952Z,34.83
2024-01-25T08:06:02.228Z,31.87
2024-01-25T08:08:32.534Z,40.50
2024-01-25T08:11:02.447Z,27.37
2024-01-25T08:13:36.024Z,24.63
2024-01-25T08:16:08.448Z,30.27
2024-01-25T08:18:38.459Z,34.53
2024-01-25T08:21:08.938Z,31.00
2024-01-25T08:23:38.799Z,32.63
2024-01-25T08:26:10.498Z,24.27
2024-01-25T08:28:44.729Z,27.53
2024-01-25T08:31:15.135Z,43.70
2024-01-25T08:33:49.295Z,38.97
2024-01-25T08:36:21.759Z,45.07
2024-01-25T08:38:51.754Z,46.43
2024-01-25T08:41:21.949Z,32.23
2024-01-25T08:43:55.072Z,34.87
2024-01-25T08:46:25.690Z,28.53
2024-01-25T08:48:55.756Z,40.57
2024-01-25T08:51:28.109Z,34.70
2024-01-25T08:53:57.957Z,39.63
2024-01-25T08:56:27.739Z,43.77
2024-01-25T08:59:00.253Z,39.10
2024-01-25T09:01:30.258Z,32.60
2024-01-25T09:04:04.449Z,24.70
2024-01-25T09:06:34.692Z,41.70
2024-01-25T09:09:06.891Z,32.10
2024-01-25T09:11:37.160Z,35.83
2024-01-25T09:14:09.921Z,38.97
2024-01-25T09:16:40.135Z,26.87
2024-01-25T09:19:10.907Z,40.00
2024-01-25T09:21:44.829Z,35.70
2024-01-25T09:24:14.787Z,39.20
2024-01-25T09:26:44.772Z,35.23
2024-01-25T09:29:17.626Z,38.70
2024-01-25T09:31:47.647Z,34.80
2024-01-25T09:34:17.955Z,38.63
2024-01-25T09:36:48.131Z,36.20
2024-01-25T09:39:21.104Z,45.03
2024-01-25T09:41:51.326Z,35.93
2024-01-25T09:44:25.156Z,55.27
2024-01-25T09:46:56.122Z,43.97
2024-01-25T09:49:26.344Z,43.77
2024-01-25T09:51:57.079Z,43.43
2024-01-25T09:54:30.887Z,46.57
2024-01-25T09:57:00.956Z,36.73
2024-01-25T09:59:33.510Z,54.63
2024-01-25T10:02:06.988Z,39.43
2024-01-25T10:04:36.980Z,36.70
2024-01-25T10:07:07.507Z,44.43
2024-01-25T10:09:43.755Z,31.93
2024-01-25T10:12:18.553Z,46.93
2024-01-25T10:14:52.820Z,34.57
2024-01-25T10:17:22.978Z,42.73
2024-01-25T10:19:53.117Z,44.47
2024-01-25T10:22:24.413Z,44.47
2024-01-25T10:24:58.075Z,32.17
2024-01-25T10:27:28.301Z,42.73
2024-01-25T10:30:02.240Z,42.83
2024-01-25T10:32:32.991Z,32.13
2024-01-25T10:35:08.758Z,44.50
2024-01-25T10:37:42.464Z,38.93
2024-01-25T10:40:14.934Z,44.27
2024-01-25T10:42:45.446Z,33.43
2024-01-25T10:45:18.409Z,43.87
2024-01-25T10:47:53.070Z,39.63
2024-01-25T10:50:23.600Z,42.13
2024-01-25T10:52:53.671Z,45.37
2024-01-25T10:55:27.133Z,45.63
2024-01-25T10:57:57.280Z,57.87
2024-01-25T11:00:29.864Z,51.67
2024-01-25T11:02:59.742Z,48.97
2024-01-25T11:05:30.414Z,43.37
2024-01-25T11:08:00.502Z,50.60
2024-01-25T11:10:31.247Z,49.37
2024-01-25T11:13:03.098Z,45.77
2024-01-25T11:15:38.120Z,53.10
2024-01-25T11:18:12.520Z,50.77
2024-01-25T11:20:42.966Z,47.07
2024-01-25T11:23:12.967Z,40.67
2024-01-25T11:25:42.848Z,44.07
2024-01-25T11:28:12.838Z,45.80
2024-01-25T11:30:45.878Z,51.87
2024-01-25T11:33:16.131Z,40.47
2024-01-25T11:35:46.115Z,39.43
2024-01-25T11:38:16.124Z,38.53
2024-01-25T11:40:46.349Z,42.50
2024-01-25T11:43:16.564Z,45.83
2024-01-25T11:45:49.120Z,48.90
2024-01-25T11:48:19.124Z,50.47
2024-01-25T11:50:49.859Z,60.20
2024-01-25T11:53:19.788Z,52.67
2024-01-25T11:55:49.595Z,56.13
2024-01-25T11:58:19.782Z,49.60
2024-01-25T12:00:52.770Z,46.20
2024-01-25T12:03:23.016Z,51.10
2024-01-25T12:05:53.056Z,49.37
2024-01-25T12:08:23.342Z,52.47
2024-01-25T12:10:53.613Z,36.63
2024-01-25T12:13:23.518Z,44.17
2024-01-25T12:15:57.276Z,41.60
2024-01-25T12:18:27.383Z,55.53
2024-01-25T12:20:57.760Z,48.07
2024-01-25T12:23:33.959Z,50.70
2024-01-25T12:26:05.716Z,51.27
2024-01-25T12:28:36.601Z,47.97
2024-01-25T12:31:10.634Z,46.70
2024-01-25T12:33:42.495Z,51.00
2024-01-25T12:36:12.818Z,54.23
2024-01-25T12:38:42.863Z,58.90
2024-01-25T12:41:12.932Z,61.37
2024-01-25T12:43:45.762Z,54.97
2024-01-25T12:46:26.361Z,65.63
2024-01-25T12:48:59.524Z,53.47
2024-01-25T12:51:30.328Z,43.03
2024-01-25T12:54:00.608Z,44.17
2024-01-25T12:56:30.609Z,42.03
2024-01-25T12:59:00.641Z,57.80
2024-01-25T13:01:33.570Z,45.73
2024-01-25T13:04:04.304Z,41.23
2024-01-25T13:06:34.323Z,42.43
2024-01-25T13:09:05.053Z,37.57
2024-01-25T13:11:34.917Z,44.77
2024-01-25T13:14:04.785Z,44.67
2024-01-25T13:16:37.331Z,53.03
2024-01-25T13:19:10.171Z,53.40
2024-01-25T13:21:40.803Z,53.53
2024-01-25T13:24:11.001Z,48.70
2024-01-25T13:26:41.014Z,43.97
2024-01-25T13:29:14.168Z,43.33
2024-01-25T13:31:49.102Z,56.60
2024-01-25T13:34:19.156Z,49.57
2024-01-25T13:36:49.150Z,50.33
2024-01-25T13:39:19.019Z,45.27
2024-01-25T13:41:50.134Z,41.63
2024-01-25T13:44:20.054Z,55.60
2024-01-25T13:46:52.594Z,41.10
2024-01-25T13:49:22.511Z,54.80
2024-01-25T13:51:52.507Z,47.57
2024-01-25T13:54:22.419Z,46.47
2024-01-25T13:56:55.053Z,48.40
2024-01-25T13:59:26.921Z,53.70
2024-01-25T14:01:59.639Z,61.77
2024-01-25T14:04:29.594Z,44.57
2024-01-25T14:07:02.686Z,47.23
2024-01-25T14:09:33.590Z,47.30
2024-01-25T14:12:04.128Z,46.57
2024-01-25T14:14:34.152Z,52.33
2024-01-25T14:17:07.323Z,46.80
2024-01-25T14:19:37.527Z,49.10
2024-01-25T14:22:21.005Z,48.27
2024-01-25T14:24:57.740Z,47.20
2024-01-25T14:27:28.219Z,48.93
2024-01-25T14:29:58.374Z,66.40
2024-01-25T14:32:31.053Z,47.53
2024-01-25T14:35:01.101Z,46.53
2024-01-25T14:37:32.776Z,43.27
2024-01-25T14:40:16.690Z,49.30
2024-01-25T14:42:53.725Z,43.50
2024-01-25T14:45:24.235Z,48.80
2024-01-25T14:47:58.925Z,49.90
2024-01-25T14:50:28.897Z,42.03
2024-01-25T14:52:58.739Z,42.90
2024-01-25T14:55:28.655Z,43.43
2024-01-25T14:57:58.532Z,34.83
2024-01-25T15:00:28.450Z,39.17
2024-01-25T15:03:00.965Z,35.50
2024-01-25T15:05:30.792Z,40.93
2024-01-25T15:08:00.851Z,43.17
2024-01-25T15:10:32.651Z,49.47
2024-01-25T15:13:02.858Z,49.60
2024-01-25T15:15:35.235Z,44.83
2024-01-25T15:18:09.148Z,41.17
2024-01-25T15:20:39.567Z,47.63
2024-01-25T15:23:10.292Z,46.37
2024-01-25T15:25:40.137Z,29.77
2024-01-25T15:28:10.227Z,49.07
2024-01-25T15:30:40.272Z,39.80
2024-01-25T15:33:13.048Z,37.57
2024-01-25T15:35:42.969Z,32.70
2024-01-25T15:38:16.770Z,40.83
2024-01-25T15:40:46.697Z,41.47
2024-01-25T15:43:17.386Z,37.57
2024-01-25T15:45:47.613Z,41.23
2024-01-25T15:48:20.137Z,44.40
2024-01-25T15:50:51.486Z,42.30
2024-01-25T15:53:21.274Z,34.13
2024-01-25T15:55:53.643Z,34.17
2024-01-25T15:58:23.771Z,40.40
2024-01-25T16:00:53.687Z,44.13
2024-01-25T16:03:26.329Z,31.97
2024-01-25T16:05:57.136Z,40.13
2024-01-25T16:08:27.268Z,39.57
2024-01-25T16:10:57.134Z,42.53
2024-01-25T16:13:26.969Z,41.43
2024-01-25T16:15:57.023Z,47.50
2024-01-25T16:18:29.712Z,28.80
2024-01-25T16:20:59.861Z,32.73
2024-01-25T16:23:29.869Z,36.73
2024-01-25T16:25:59.750Z,40.23
2024-01-25T16:28:29.607Z,35.87
2024-01-25T16:31:01.649Z,35.60
2024-01-25T16:33:34.394Z,38.50
2024-01-25T16:36:04.397Z,39.03
2024-01-25T16:38:34.473Z,35.00
2024-01-25T16:41:04.304Z,35.63
2024-01-25T16:43:34.280Z,34.00
2024-01-25T16:46:04.325Z,38.13
2024-01-25T16:48:37.069Z,33.43
2024-01-25T16:51:07.772Z,36.60
2024-01-25T16:53:37.623Z,37.67
2024-01-25T16:56:08.189Z,31.47
2024-01-25T16:58:38.040Z,29.93
2024-01-25T17:01:09.498Z,30.97
2024-01-25T17:03:42.145Z,34.33
2024-01-25T17:06:12.047Z,25.53
2024-01-25T17:08:41.991Z,38.97
2024-01-25T17:11:12.710Z,27.00
2024-01-25T17:13:42.610Z,33.43
2024-01-25T17:16:12.494Z,31.37
2024-01-25T17:18:45.130Z,39.57
2024-01-25T17:21:18.021Z,31.17
2024-01-25T17:23:51.329Z,31.53
2024-01-25T17:26:24.744Z,27.60
2024-01-25T17:28:55.115Z,37.43
2024-01-25T17:31:25.132Z,24.87
2024-01-25T17:33:57.947Z,31.47
2024-01-25T17:36:28.348Z,31.33
2024-01-25T17:38:58.343Z,34.43
2024-01-25T17:41:28.328Z,26.07
2024-01-25T17:43:58.773Z,27.90
2024-01-25T17:46:28.707Z,23.63
2024-01-25T17:49:01.557Z,25.73
2024-01-25T17:51:31.731Z,30.40
2024-01-25T17:54:07.518Z,27.43
2024-01-25T17:56:43.444Z,37.93
2024-01-25T17:59:17.001Z,23.93
2024-01-25T18:01:47.063Z,28.13
2024-01-25T18:04:19.515Z,23.50
2024-01-25T18:06:49.448Z,26.70
2024-01-25T18:09:19.380Z,20.70
2024-01-25T18:11:49.378Z,25.90
2024-01-25T18:14:19.249Z,27.23
2024-01-25T18:16:49.017Z,21.53
2024-01-25T18:19:21.769Z,21.37
2024-01-25T18:21:55.575Z,25.67
2024-01-25T18:24:26.150Z,16.87
2024-01-25T18:27:01.026Z,25.27
2024-01-25T18:29:41.196Z,24.67
2024-01-25T18:32:12.661Z,25.43
2024-01-25T18:34:47.266Z,25.63
2024-01-25T18:37:19.944Z,24.27
2024-01-25T18:39:51.875Z,31.90
2024-01-25T18:42:23.444Z,24.97
2024-01-25T18:44:53.388Z,25.53
2024-01-25T18:47:24.890Z,27.23
2024-01-25T18:49:57.621Z,35.33
2024-01-25T18:52:27.497Z,23.43
2024-01-25T18:54:58.147Z,18.20
2024-01-25T18:57:28.688Z,24.53
2024-01-25T18:59:59.365Z,21.70
2024-01-25T19:02:29.870Z,28.27
2024-01-25T19:05:03.423Z,21.87
2024-01-25T19:07:34.021Z,25.70
2024-01-25T19:10:04.082Z,36.07
2024-01-25T19:12:33.999Z,34.97
2024-01-25T19:15:06.014Z,62.77
2024-01-25T19:17:35.876Z,71.77
2024-01-25T19:20:09.346Z,36.90
2024-01-25T19:22:39.155Z,28.57
2024-01-25T19:25:09.386Z,23.97
2024-01-25T19:27:39.514Z,30.67
2024-01-25T19:30:08.333Z,27.40
2024-01-25T19:32:38.419Z,24.27
2024-01-25T19:35:23.683Z,27.77
2024-01-25T19:38:00.083Z,27.07
2024-01-25T19:40:48.625Z,28.73
2024-01-25T19:43:21.446Z,30.73
2024-01-25T19:46:03.119Z,29.73
2024-01-25T19:48:38.934Z,34.47
2024-01-25T19:51:25.432Z,27.33
2024-01-25T19:54:10.095Z,32.87
2024-01-25T19:56:40.017Z,29.40
2024-01-25T19:59:11.139Z,25.13
2024-01-25T20:01:44.689Z,35.53
2024-01-25T20:04:18.135Z,31.93
2024-01-25T20:06:54.290Z,29.87
2024-01-25T20:09:33.287Z,33.77
2024-01-25T20:12:13.374Z,33.03
2024-01-25T20:14:46.136Z,27.53
2024-01-25T20:17:16.828Z,29.33
2024-01-25T20:19:56.024Z,35.10
2024-01-25T20:22:28.739Z,38.90
2024-01-25T20:24:59.128Z,26.60
2024-01-25T20:27:42.627Z,33.80
2024-01-25T20:30:22.326Z,38.87
2024-01-25T20:32:58.661Z,42.87
2024-01-25T20:35:28.546Z,33.77
2024-01-25T20:38:21.314Z,29.23
2024-01-25T20:40:51.591Z,33.60
2024-01-25T20:43:26.800Z,34.23
2024-01-25T20:46:00.237Z,43.17
2024-01-25T20:48:39.665Z,38.47
2024-01-25T20:51:18.256Z,38.47
2024-01-25T20:54:01.394Z,42.03
2024-01-25T20:56:36.315Z,32.47
2024-01-25T20:59:06.289Z,33.70
2024-01-25T21:01:54.970Z,39.83
2024-01-25T21:04:31.289Z,38.97
2024-01-25T21:07:03.863Z,34.00
2024-01-25T21:09:49.361Z,39.53
2024-01-25T21:12:20.565Z,41.40
2024-01-25T21:14:51.222Z,29.20
2024-01-25T21:17:21.052Z,39.70
2024-01-25T21:19:51.041Z,32.13
2024-01-25T21:22:21.004Z,34.10
2024-01-25T21:24:55.018Z,33.07
2024-01-25T21:27:24.975Z,34.67
2024-01-25T21:29:54.913Z,32.27
2024-01-25T21:32:24.835Z,31.60
2024-01-25T21:34:54.823Z,25.83
2024-01-25T21:37:25.718Z,30.23
2024-01-25T21:39:58.265Z,30.63
2024-01-25T21:42:29.052Z,30.20
2024-01-25T21:44:58.994Z,31.10
2024-01-25T21:47:28.983Z,28.70
2024-01-25T21:49:59.051Z,28.20
2024-01-25T21:52:29.144Z,32.13
2024-01-25T21:55:02.270Z,28.23
2024-01-25T21:57:39.377Z,28.07
2024-01-25T22:00:10.740Z,32.80
2024-01-25T22:02:41.445Z,26.00
2024-01-25T22:05:14.256Z,30.43
2024-01-25T22:07:44.192Z,29.77
2024-01-25T22:10:19.646Z,23.87
2024-01-25T22:12:49.862Z,24.13
2024-01-25T22:15:20.151Z,16.47
2024-01-25T22:17:51.876Z,24.90
2024-01-25T22:20:21.939Z,24.47
2024-01-25T22:22:51.875Z,27.13
2024-01-25T22:25:28.369Z,21.43
2024-01-25T22:28:00.838Z,22.60
2024-01-25T22:30:30.983Z,22.40
2024-01-25T22:33:01.143Z,27.57
2024-01-25T22:35:31.006Z,26.57
2024-01-25T22:38:00.868Z,25.07
2024-01-25T22:40:33.325Z,25.33
2024-01-25T22:43:03.297Z,30.80
2024-01-25T22:45:33.291Z,24.70
2024-01-25T22:48:03.486Z,20.37
2024-01-25T22:50:33.486Z,24.73
2024-01-25T22:53:04.631Z,24.57
2024-01-25T22:55:37.244Z,27.57
2024-01-25T22:58:07.634Z,21.93
2024-01-25T23:00:42.167Z,28.83
2024-01-25T23:03:12.367Z,26.93
2024-01-25T23:05:42.355Z,27.43
2024-01-25T23:08:12.356Z,25.53
2024-01-25T23:10:45.107Z,29.57
2024-01-25T23:13:16.149Z,28.17
2024-01-25T23:15:46.208Z,26.37
2024-01-25T23:18:16.714Z,26.23
2024-01-25T23:20:47.246Z,27.57
2024-01-25T23:23:17.225Z,24.83
2024-01-25T23:25:50.124Z,31.97
2024-01-25T23:28:20.416Z,30.03
2024-01-25T23:30:50.360Z,25.10
2024-01-25T23:33:23.728Z,23.47
2024-01-25T23:35:54.163Z,25.23
2024-01-25T23:38:25.344Z,20.73
2024-01-25T23:41:00.814Z,24.40
2024-01-25T23:43:33.896Z,27.20
2024-01-25T23:46:04.922Z,21.23
2024-01-25T23:48:37.991Z,28.53
2024-01-25T23:51:11.407Z,24.83
2024-01-25T23:53:41.525Z,26.93
2024-01-25T23:56:14.026Z,27.00
2024-01-25T23:58:44.265Z,25.70
